sensor_id;sensor_type;location;lat;lon;timestamp;P1;durP1;ratioP1;P2;durP2;ratioP2
17141;SDS011;32805;53.556;9.944;2023-04-19T00:02:22;5.43;;;4.25;;
17141;SDS011;32805;53.556;9.944;2023-04-19T00:04:51;8.32;;;4.93;;
17141;SDS011;32805;53.556;9.944;2023-04-19T00:07:21;6.53;;;4.30;;
17141;SDS011;32805;53.556;9.944;2023-04-19T00:09:48;8.55;;;4.72;;
17141;SDS011;32805;53.556;9.944;2023-04-19T00:12:16;8.77;;;4.95;;
17141;SDS011;32805;53.556;9.944;2023-04-19T00:14:44;8.98;;;5.10;;
17141;SDS011;32805;53.556;9.944;2023-04-19T00:17:12;6.82;;;4.43;;
17141;SDS011;32805;53.556;9.944;2023-04-19T00:19:40;6.63;;;4.93;;
17141;SDS011;32805;53.556;9.944;2023-04-19T00:22:08;7.18;;;5.10;;
17141;SDS011;32805;53.556;9.944;2023-04-19T00:24:35;9.48;;;5.43;;
17141;SDS011;32805;53.556;9.944;2023-04-19T00:27:03;8.13;;;5.07;;
17141;SDS011;32805;53.556;9.944;2023-04-19T00:29:31;11.82;;;5.32;;
17141;SDS011;32805;53.556;9.944;2023-04-19T00:31:58;7.18;;;5.10;;
17141;SDS011;32805;53.556;9.944;2023-04-19T00:34:27;7.18;;;4.72;;
17141;SDS011;32805;53.556;9.944;2023-04-19T00:36:55;7.78;;;5.57;;
17141;SDS011;32805;53.556;9.944;2023-04-19T00:39:22;7.50;;;5.28;;
17141;SDS011;32805;53.556;9.944;2023-04-19T00:41:50;10.57;;;5.20;;
17141;SDS011;32805;53.556;9.944;2023-04-19T00:44:18;9.18;;;5.03;;
17141;SDS011;32805;53.556;9.944;2023-04-19T00:46:46;5.93;;;4.30;;
17141;SDS011;32805;53.556;9.944;2023-04-19T00:49:15;10.05;;;4.80;;
17141;SDS011;32805;53.556;9.944;2023-04-19T00:51:44;8.63;;;5.00;;
17141;SDS011;32805;53.556;9.944;2023-04-19T00:54:13;10.95;;;4.63;;
17141;SDS011;32805;53.556;9.944;2023-04-19T00:56:42;6.97;;;4.60;;
17141;SDS011;32805;53.556;9.944;2023-04-19T00:59:11;7.05;;;4.80;;
17141;SDS011;32805;53.556;9.944;2023-04-19T01:01:40;5.57;;;4.50;;
17141;SDS011;32805;53.556;9.944;2023-04-19T01:04:08;8.68;;;4.55;;
17141;SDS011;32805;53.556;9.944;2023-04-19T01:06:36;5.93;;;4.38;;
17141;SDS011;32805;53.556;9.944;2023-04-19T01:09:10;5.68;;;4.40;;
17141;SDS011;32805;53.556;9.944;2023-04-19T01:11:39;8.70;;;4.20;;
17141;SDS011;32805;53.556;9.944;2023-04-19T01:14:09;7.57;;;4.20;;
17141;SDS011;32805;53.556;9.944;2023-04-19T01:16:36;5.25;;;4.03;;
17141;SDS011;32805;53.556;9.944;2023-04-19T01:19:04;6.15;;;3.75;;
17141;SDS011;32805;53.556;9.944;2023-04-19T01:21:32;7.55;;;4.47;;
17141;SDS011;32805;53.556;9.944;2023-04-19T01:24:05;5.18;;;3.78;;
17141;SDS011;32805;53.556;9.944;2023-04-19T01:26:33;7.78;;;4.20;;
17141;SDS011;32805;53.556;9.944;2023-04-19T01:29:01;7.32;;;4.35;;
17141;SDS011;32805;53.556;9.944;2023-04-19T01:31:28;5.63;;;3.63;;
17141;SDS011;32805;53.556;9.944;2023-04-19T01:33:56;5.10;;;3.78;;
17141;SDS011;32805;53.556;9.944;2023-04-19T01:36:24;5.63;;;3.72;;
17141;SDS011;32805;53.556;9.944;2023-04-19T01:38:54;6.85;;;3.72;;
17141;SDS011;32805;53.556;9.944;2023-04-19T01:41:23;4.57;;;3.45;;
17141;SDS011;32805;53.556;9.944;2023-04-19T01:43:52;4.78;;;3.30;;
17141;SDS011;32805;53.556;9.944;2023-04-19T01:46:20;5.22;;;3.25;;
17141;SDS011;32805;53.556;9.944;2023-04-19T01:48:47;6.28;;;3.50;;
17141;SDS011;32805;53.556;9.944;2023-04-19T01:51:15;5.80;;;3.13;;
17141;SDS011;32805;53.556;9.944;2023-04-19T01:53:43;6.28;;;3.40;;
17141;SDS011;32805;53.556;9.944;2023-04-19T01:56:10;5.40;;;3.38;;
17141;SDS011;32805;53.556;9.944;2023-04-19T01:58:39;6.35;;;3.08;;
17141;SDS011;32805;53.556;9.944;2023-04-19T02:01:07;4.78;;;3.50;;
17141;SDS011;32805;53.556;9.944;2023-04-19T02:03:37;5.05;;;3.28;;
17141;SDS011;32805;53.556;9.944;2023-04-19T02:06:08;6.60;;;3.30;;
17141;SDS011;32805;53.556;9.944;2023-04-19T02:08:36;6.70;;;2.78;;
17141;SDS011;32805;53.556;9.944;2023-04-19T02:11:05;4.30;;;3.13;;
17141;SDS011;32805;53.556;9.944;2023-04-19T02:13:33;4.88;;;2.72;;
17141;SDS011;32805;53.556;9.944;2023-04-19T02:16:06;4.93;;;3.40;;
17141;SDS011;32805;53.556;9.944;2023-04-19T02:18:34;6.40;;;3.10;;
17141;SDS011;32805;53.556;9.944;2023-04-19T02:21:03;7.35;;;3.42;;
17141;SDS011;32805;53.556;9.944;2023-04-19T02:23:32;4.78;;;3.00;;
17141;SDS011;32805;53.556;9.944;2023-04-19T02:26:00;5.32;;;3.28;;
17141;SDS011;32805;53.556;9.944;2023-04-19T02:28:28;8.02;;;3.63;;
17141;SDS011;32805;53.556;9.944;2023-04-19T02:30:56;4.85;;;3.28;;
17141;SDS011;32805;53.556;9.944;2023-04-19T02:33:27;7.25;;;3.97;;
17141;SDS011;32805;53.556;9.944;2023-04-19T02:35:55;6.10;;;3.72;;
17141;SDS011;32805;53.556;9.944;2023-04-19T02:38:22;6.20;;;3.15;;
17141;SDS011;32805;53.556;9.944;2023-04-19T02:40:52;5.22;;;3.25;;
17141;SDS011;32805;53.556;9.944;2023-04-19T02:43:20;6.25;;;3.13;;
17141;SDS011;32805;53.556;9.944;2023-04-19T02:45:47;8.38;;;3.40;;
17141;SDS011;32805;53.556;9.944;2023-04-19T02:48:15;5.13;;;3.25;;
17141;SDS011;32805;53.556;9.944;2023-04-19T02:50:44;5.18;;;3.20;;
17141;SDS011;32805;53.556;9.944;2023-04-19T02:53:12;6.70;;;3.22;;
17141;SDS011;32805;53.556;9.944;2023-04-19T02:55:40;5.05;;;2.80;;
17141;SDS011;32805;53.556;9.944;2023-04-19T02:58:13;5.75;;;4.00;;
17141;SDS011;32805;53.556;9.944;2023-04-19T03:00:52;4.93;;;3.63;;
17141;SDS011;32805;53.556;9.944;2023-04-19T03:03:21;5.63;;;3.53;;
17141;SDS011;32805;53.556;9.944;2023-04-19T03:05:50;5.03;;;3.63;;
17141;SDS011;32805;53.556;9.944;2023-04-19T03:08:18;5.40;;;3.72;;
17141;SDS011;32805;53.556;9.944;2023-04-19T03:10:46;4.05;;;3.63;;
17141;SDS011;32805;53.556;9.944;2023-04-19T03:13:13;7.97;;;4.78;;
17141;SDS011;32805;53.556;9.944;2023-04-19T03:15:41;6.07;;;3.55;;
17141;SDS011;32805;53.556;9.944;2023-04-19T03:18:09;12.27;;;6.65;;
17141;SDS011;32805;53.556;9.944;2023-04-19T03:20:40;6.88;;;4.15;;
17141;SDS011;32805;53.556;9.944;2023-04-19T03:23:09;12.13;;;6.72;;
17141;SDS011;32805;53.556;9.944;2023-04-19T03:25:37;11.88;;;5.85;;
17141;SDS011;32805;53.556;9.944;2023-04-19T03:28:18;10.63;;;6.22;;
17141;SDS011;32805;53.556;9.944;2023-04-19T03:31:09;6.32;;;3.88;;
17141;SDS011;32805;53.556;9.944;2023-04-19T03:33:37;4.88;;;3.33;;
17141;SDS011;32805;53.556;9.944;2023-04-19T03:36:05;10.75;;;5.03;;
17141;SDS011;32805;53.556;9.944;2023-04-19T03:38:36;6.18;;;3.10;;
17141;SDS011;32805;53.556;9.944;2023-04-19T03:41:16;4.57;;;3.50;;
17141;SDS011;32805;53.556;9.944;2023-04-19T03:43:45;6.43;;;3.42;;
17141;SDS011;32805;53.556;9.944;2023-04-19T03:46:13;6.13;;;3.40;;
17141;SDS011;32805;53.556;9.944;2023-04-19T03:48:40;7.80;;;4.07;;
17141;SDS011;32805;53.556;9.944;2023-04-19T03:51:08;10.15;;;5.20;;
17141;SDS011;32805;53.556;9.944;2023-04-19T03:53:37;4.97;;;3.22;;
17141;SDS011;32805;53.556;9.944;2023-04-19T03:56:05;5.32;;;3.20;;
17141;SDS011;32805;53.556;9.944;2023-04-19T03:58:33;8.73;;;5.07;;
17141;SDS011;32805;53.556;9.944;2023-04-19T04:01:04;12.35;;;6.22;;
17141;SDS011;32805;53.556;9.944;2023-04-19T04:03:33;5.68;;;3.75;;
17141;SDS011;32805;53.556;9.944;2023-04-19T04:06:03;5.18;;;3.17;;
17141;SDS011;32805;53.556;9.944;2023-04-19T04:08:30;6.70;;;3.83;;
17141;SDS011;32805;53.556;9.944;2023-04-19T04:10:59;10.73;;;4.25;;
17141;SDS011;32805;53.556;9.944;2023-04-19T04:13:28;5.00;;;3.08;;
17141;SDS011;32805;53.556;9.944;2023-04-19T04:16:04;4.60;;;3.47;;
17141;SDS011;32805;53.556;9.944;2023-04-19T04:18:33;4.22;;;3.35;;
17141;SDS011;32805;53.556;9.944;2023-04-19T04:21:03;5.68;;;2.90;;
17141;SDS011;32805;53.556;9.944;2023-04-19T04:23:33;7.15;;;3.38;;
17141;SDS011;32805;53.556;9.944;2023-04-19T04:26:04;6.38;;;3.90;;
17141;SDS011;32805;53.556;9.944;2023-04-19T04:28:58;6.90;;;3.85;;
17141;SDS011;32805;53.556;9.944;2023-04-19T04:31:26;5.63;;;3.40;;
17141;SDS011;32805;53.556;9.944;2023-04-19T04:33:54;7.47;;;3.28;;
17141;SDS011;32805;53.556;9.944;2023-04-19T04:36:22;6.93;;;3.63;;
17141;SDS011;32805;53.556;9.944;2023-04-19T04:38:51;7.97;;;4.05;;
17141;SDS011;32805;53.556;9.944;2023-04-19T04:41:21;6.53;;;3.30;;
17141;SDS011;32805;53.556;9.944;2023-04-19T04:43:49;5.78;;;3.50;;
17141;SDS011;32805;53.556;9.944;2023-04-19T04:46:37;10.23;;;3.30;;
17141;SDS011;32805;53.556;9.944;2023-04-19T04:49:05;6.50;;;3.05;;
17141;SDS011;32805;53.556;9.944;2023-04-19T04:51:33;4.88;;;3.25;;
17141;SDS011;32805;53.556;9.944;2023-04-19T04:54:02;7.30;;;3.33;;
17141;SDS011;32805;53.556;9.944;2023-04-19T04:56:32;4.68;;;3.10;;
17141;SDS011;32805;53.556;9.944;2023-04-19T04:58:59;5.32;;;3.10;;
17141;SDS011;32805;53.556;9.944;2023-04-19T05:01:32;4.43;;;2.78;;
17141;SDS011;32805;53.556;9.944;2023-04-19T05:04:00;4.72;;;3.45;;
17141;SDS011;32805;53.556;9.944;2023-04-19T05:06:28;5.45;;;3.25;;
17141;SDS011;32805;53.556;9.944;2023-04-19T05:08:56;5.07;;;2.95;;
17141;SDS011;32805;53.556;9.944;2023-04-19T05:11:32;5.38;;;2.65;;
17141;SDS011;32805;53.556;9.944;2023-04-19T05:14:00;5.25;;;2.80;;
17141;SDS011;32805;53.556;9.944;2023-04-19T05:16:30;3.70;;;2.72;;
17141;SDS011;32805;53.556;9.944;2023-04-19T05:18:59;3.92;;;2.75;;
17141;SDS011;32805;53.556;9.944;2023-04-19T05:21:31;4.07;;;2.70;;
17141;SDS011;32805;53.556;9.944;2023-04-19T05:24:00;4.35;;;2.80;;
17141;SDS011;32805;53.556;9.944;2023-04-19T05:26:28;4.82;;;2.60;;
17141;SDS011;32805;53.556;9.944;2023-04-19T05:28:57;3.88;;;2.90;;
17141;SDS011;32805;53.556;9.944;2023-04-19T05:31:38;3.28;;;2.40;;
17141;SDS011;32805;53.556;9.944;2023-04-19T05:34:19;3.28;;;2.30;;
17141;SDS011;32805;53.556;9.944;2023-04-19T05:36:48;2.70;;;2.20;;
17141;SDS011;32805;53.556;9.944;2023-04-19T05:39:15;3.13;;;2.30;;
17141;SDS011;32805;53.556;9.944;2023-04-19T05:41:43;3.40;;;2.30;;
17141;SDS011;32805;53.556;9.944;2023-04-19T05:44:12;2.55;;;2.15;;
17141;SDS011;32805;53.556;9.944;2023-04-19T05:46:40;2.65;;;2.08;;
17141;SDS011;32805;53.556;9.944;2023-04-19T05:49:11;4.57;;;2.45;;
17141;SDS011;32805;53.556;9.944;2023-04-19T05:52:06;4.68;;;2.40;;
17141;SDS011;32805;53.556;9.944;2023-04-19T05:54:41;4.85;;;2.13;;
17141;SDS011;32805;53.556;9.944;2023-04-19T05:57:10;3.33;;;2.00;;
17141;SDS011;32805;53.556;9.944;2023-04-19T05:59:39;4.13;;;2.53;;
17141;SDS011;32805;53.556;9.944;2023-04-19T06:02:08;2.17;;;1.63;;
17141;SDS011;32805;53.556;9.944;2023-04-19T06:04:36;3.38;;;1.83;;
17141;SDS011;32805;53.556;9.944;2023-04-19T06:07:05;2.92;;;1.95;;
17141;SDS011;32805;53.556;9.944;2023-04-19T06:09:52;4.03;;;1.80;;
17141;SDS011;32805;53.556;9.944;2023-04-19T06:12:19;1.48;;;1.35;;
17141;SDS011;32805;53.556;9.944;2023-04-19T06:14:48;2.95;;;1.40;;
17141;SDS011;32805;53.556;9.944;2023-04-19T06:17:17;1.30;;;1.05;;
17141;SDS011;32805;53.556;9.944;2023-04-19T06:19:49;1.45;;;1.33;;
17141;SDS011;32805;53.556;9.944;2023-04-19T06:22:16;1.55;;;0.98;;
17141;SDS011;32805;53.556;9.944;2023-04-19T06:24:44;2.47;;;1.38;;
17141;SDS011;32805;53.556;9.944;2023-04-19T06:27:13;1.80;;;1.30;;
17141;SDS011;32805;53.556;9.944;2023-04-19T06:29:42;2.28;;;1.55;;
17141;SDS011;32805;53.556;9.944;2023-04-19T06:32:11;2.78;;;1.60;;
17141;SDS011;32805;53.556;9.944;2023-04-19T06:34:38;1.40;;;1.30;;
17141;SDS011;32805;53.556;9.944;2023-04-19T06:37:06;1.88;;;1.40;;
17141;SDS011;32805;53.556;9.944;2023-04-19T06:39:34;2.83;;;1.30;;
17141;SDS011;32805;53.556;9.944;2023-04-19T06:42:01;4.85;;;2.42;;
17141;SDS011;32805;53.556;9.944;2023-04-19T06:44:31;2.40;;;1.30;;
17141;SDS011;32805;53.556;9.944;2023-04-19T06:46:59;2.90;;;1.05;;
17141;SDS011;32805;53.556;9.944;2023-04-19T06:49:28;2.83;;;1.25;;
17141;SDS011;32805;53.556;9.944;2023-04-19T06:51:58;2.75;;;1.30;;
17141;SDS011;32805;53.556;9.944;2023-04-19T06:54:26;2.85;;;1.60;;
17141;SDS011;32805;53.556;9.944;2023-04-19T06:56:54;1.60;;;1.40;;
17141;SDS011;32805;53.556;9.944;2023-04-19T06:59:22;2.22;;;1.50;;
17141;SDS011;32805;53.556;9.944;2023-04-19T07:01:53;2.58;;;1.17;;
17141;SDS011;32805;53.556;9.944;2023-04-19T07:04:22;2.53;;;1.48;;
17141;SDS011;32805;53.556;9.944;2023-04-19T07:06:53;1.73;;;1.17;;
17141;SDS011;32805;53.556;9.944;2023-04-19T07:09:20;2.08;;;1.25;;
17141;SDS011;32805;53.556;9.944;2023-04-19T07:11:48;2.15;;;0.95;;
17141;SDS011;32805;53.556;9.944;2023-04-19T07:14:16;1.52;;;0.80;;
17141;SDS011;32805;53.556;9.944;2023-04-19T07:16:44;1.38;;;0.85;;
17141;SDS011;32805;53.556;9.944;2023-04-19T07:19:12;1.58;;;1.25;;
17141;SDS011;32805;53.556;9.944;2023-04-19T07:21:40;2.25;;;1.10;;
17141;SDS011;32805;53.556;9.944;2023-04-19T07:24:09;1.10;;;0.82;;
17141;SDS011;32805;53.556;9.944;2023-04-19T07:26:37;2.45;;;0.90;;
17141;SDS011;32805;53.556;9.944;2023-04-19T07:29:04;2.05;;;1.08;;
17141;SDS011;32805;53.556;9.944;2023-04-19T07:31:32;1.55;;;1.00;;
17141;SDS011;32805;53.556;9.944;2023-04-19T07:34:00;1.67;;;0.85;;
17141;SDS011;32805;53.556;9.944;2023-04-19T07:36:27;2.70;;;1.17;;
17141;SDS011;32805;53.556;9.944;2023-04-19T07:38:56;1.48;;;0.90;;
17141;SDS011;32805;53.556;9.944;2023-04-19T07:41:25;2.25;;;0.90;;
17141;SDS011;32805;53.556;9.944;2023-04-19T07:43:53;2.72;;;1.20;;
17141;SDS011;32805;53.556;9.944;2023-04-19T07:46:20;1.75;;;1.00;;
17141;SDS011;32805;53.556;9.944;2023-04-19T07:48:48;0.75;;;0.75;;
17141;SDS011;32805;53.556;9.944;2023-04-19T07:51:16;1.70;;;1.00;;
17141;SDS011;32805;53.556;9.944;2023-04-19T07:53:45;3.20;;;0.90;;
17141;SDS011;32805;53.556;9.944;2023-04-19T07:56:13;1.83;;;0.90;;
17141;SDS011;32805;53.556;9.944;2023-04-19T07:58:43;4.20;;;1.15;;
17141;SDS011;32805;53.556;9.944;2023-04-19T08:01:22;1.88;;;0.90;;
17141;SDS011;32805;53.556;9.944;2023-04-19T08:03:50;2.03;;;0.90;;
17141;SDS011;32805;53.556;9.944;2023-04-19T08:06:18;1.67;;;1.15;;
17141;SDS011;32805;53.556;9.944;2023-04-19T08:08:46;0.77;;;0.70;;
17141;SDS011;32805;53.556;9.944;2023-04-19T08:11:15;2.30;;;0.80;;
17141;SDS011;32805;53.556;9.944;2023-04-19T08:13:44;2.17;;;1.00;;
17141;SDS011;32805;53.556;9.944;2023-04-19T08:16:31;0.93;;;0.75;;
17141;SDS011;32805;53.556;9.944;2023-04-19T08:19:19;2.10;;;1.05;;
17141;SDS011;32805;53.556;9.944;2023-04-19T08:21:47;2.53;;;1.10;;
17141;SDS011;32805;53.556;9.944;2023-04-19T08:24:14;1.42;;;0.88;;
17141;SDS011;32805;53.556;9.944;2023-04-19T08:26:42;1.45;;;0.80;;
17141;SDS011;32805;53.556;9.944;2023-04-19T08:29:19;1.60;;;1.27;;
17141;SDS011;32805;53.556;9.944;2023-04-19T08:31:48;2.20;;;0.85;;
17141;SDS011;32805;53.556;9.944;2023-04-19T08:34:16;0.80;;;0.80;;
17141;SDS011;32805;53.556;9.944;2023-04-19T08:36:43;1.88;;;0.82;;
17141;SDS011;32805;53.556;9.944;2023-04-19T08:39:28;1.10;;;0.82;;
17141;SDS011;32805;53.556;9.944;2023-04-19T08:42:01;2.10;;;0.68;;
17141;SDS011;32805;53.556;9.944;2023-04-19T08:44:39;1.27;;;0.88;;
17141;SDS011;32805;53.556;9.944;2023-04-19T08:47:28;1.55;;;0.93;;
17141;SDS011;32805;53.556;9.944;2023-04-19T08:50:00;2.53;;;1.00;;
17141;SDS011;32805;53.556;9.944;2023-04-19T08:52:50;1.85;;;1.00;;
17141;SDS011;32805;53.556;9.944;2023-04-19T08:55:26;1.33;;;1.00;;
17141;SDS011;32805;53.556;9.944;2023-04-19T08:57:55;1.17;;;1.05;;
17141;SDS011;32805;53.556;9.944;2023-04-19T09:00:24;1.23;;;1.13;;
17141;SDS011;32805;53.556;9.944;2023-04-19T09:02:52;3.58;;;1.40;;
17141;SDS011;32805;53.556;9.944;2023-04-19T09:05:21;2.00;;;0.93;;
17141;SDS011;32805;53.556;9.944;2023-04-19T09:07:49;3.28;;;0.98;;
17141;SDS011;32805;53.556;9.944;2023-04-19T09:10:17;1.27;;;1.05;;
17141;SDS011;32805;53.556;9.944;2023-04-19T09:12:59;1.58;;;1.10;;
17141;SDS011;32805;53.556;9.944;2023-04-19T09:15:35;2.03;;;1.20;;
17141;SDS011;32805;53.556;9.944;2023-04-19T09:18:05;3.10;;;1.48;;
17141;SDS011;32805;53.556;9.944;2023-04-19T09:20:35;1.48;;;1.15;;
17141;SDS011;32805;53.556;9.944;2023-04-19T09:23:04;1.38;;;1.20;;
17141;SDS011;32805;53.556;9.944;2023-04-19T09:25:32;1.75;;;1.38;;
17141;SDS011;32805;53.556;9.944;2023-04-19T09:28:20;1.77;;;1.38;;
17141;SDS011;32805;53.556;9.944;2023-04-19T09:30:50;1.67;;;1.02;;
17141;SDS011;32805;53.556;9.944;2023-04-19T09:33:36;4.47;;;1.90;;
17141;SDS011;32805;53.556;9.944;2023-04-19T09:36:05;3.97;;;1.45;;
17141;SDS011;32805;53.556;9.944;2023-04-19T09:38:44;3.78;;;1.50;;
17141;SDS011;32805;53.556;9.944;2023-04-19T09:41:13;2.47;;;1.60;;
17141;SDS011;32805;53.556;9.944;2023-04-19T09:43:41;3.25;;;1.73;;
17141;SDS011;32805;53.556;9.944;2023-04-19T09:46:30;2.10;;;1.30;;
17141;SDS011;32805;53.556;9.944;2023-04-19T09:49:15;2.22;;;1.38;;
17141;SDS011;32805;53.556;9.944;2023-04-19T09:51:55;2.17;;;1.58;;
17141;SDS011;32805;53.556;9.944;2023-04-19T09:54:24;1.77;;;1.60;;
17141;SDS011;32805;53.556;9.944;2023-04-19T09:56:54;4.75;;;1.60;;
17141;SDS011;32805;53.556;9.944;2023-04-19T09:59:24;2.30;;;1.52;;
17141;SDS011;32805;53.556;9.944;2023-04-19T10:01:54;4.20;;;1.40;;
17141;SDS011;32805;53.556;9.944;2023-04-19T10:04:22;2.22;;;1.60;;
17141;SDS011;32805;53.556;9.944;2023-04-19T10:07:12;2.10;;;1.60;;
17141;SDS011;32805;53.556;9.944;2023-04-19T10:09:42;2.20;;;1.73;;
17141;SDS011;32805;53.556;9.944;2023-04-19T10:12:15;1.35;;;1.25;;
17141;SDS011;32805;53.556;9.944;2023-04-19T10:15:02;1.75;;;1.42;;
17141;SDS011;32805;53.556;9.944;2023-04-19T10:17:34;2.90;;;1.63;;
17141;SDS011;32805;53.556;9.944;2023-04-19T10:20:03;4.30;;;1.77;;
17141;SDS011;32805;53.556;9.944;2023-04-19T10:22:34;4.53;;;1.80;;
17141;SDS011;32805;53.556;9.944;2023-04-19T10:25:06;2.35;;;1.67;;
17141;SDS011;32805;53.556;9.944;2023-04-19T10:27:35;5.95;;;1.75;;
17141;SDS011;32805;53.556;9.944;2023-04-19T10:30:03;2.70;;;1.52;;
17141;SDS011;32805;53.556;9.944;2023-04-19T10:32:37;1.80;;;1.50;;
17141;SDS011;32805;53.556;9.944;2023-04-19T10:35:06;2.45;;;1.60;;
17141;SDS011;32805;53.556;9.944;2023-04-19T10:37:37;2.25;;;1.70;;
17141;SDS011;32805;53.556;9.944;2023-04-19T10:40:07;1.80;;;1.70;;
17141;SDS011;32805;53.556;9.944;2023-04-19T10:45:40;2.00;;;1.60;;
17141;SDS011;32805;53.556;9.944;2023-04-19T10:48:19;3.67;;;2.03;;
17141;SDS011;32805;53.556;9.944;2023-04-19T10:50:59;2.75;;;1.60;;
17141;SDS011;32805;53.556;9.944;2023-04-19T10:53:47;2.90;;;1.70;;
17141;SDS011;32805;53.556;9.944;2023-04-19T10:59:23;5.82;;;2.15;;
17141;SDS011;32805;53.556;9.944;2023-04-19T11:01:51;2.28;;;2.08;;
17141;SDS011;32805;53.556;9.944;2023-04-19T11:04:23;2.20;;;1.70;;
17141;SDS011;32805;53.556;9.944;2023-04-19T11:07:06;2.92;;;1.50;;
17141;SDS011;32805;53.556;9.944;2023-04-19T11:09:35;2.80;;;1.70;;
17141;SDS011;32805;53.556;9.944;2023-04-19T11:12:04;2.85;;;1.60;;
17141;SDS011;32805;53.556;9.944;2023-04-19T11:14:34;5.13;;;1.80;;
17141;SDS011;32805;53.556;9.944;2023-04-19T11:17:12;1.85;;;1.60;;
17141;SDS011;32805;53.556;9.944;2023-04-19T11:19:51;1.80;;;1.70;;
17141;SDS011;32805;53.556;9.944;2023-04-19T11:22:28;3.05;;;1.77;;
17141;SDS011;32805;53.556;9.944;2023-04-19T11:25:06;2.58;;;1.98;;
17141;SDS011;32805;53.556;9.944;2023-04-19T11:27:35;6.03;;;2.25;;
17141;SDS011;32805;53.556;9.944;2023-04-19T11:30:04;3.25;;;1.75;;
17141;SDS011;32805;53.556;9.944;2023-04-19T11:32:33;3.55;;;2.05;;
17141;SDS011;32805;53.556;9.944;2023-04-19T11:35:07;1.92;;;1.42;;
17141;SDS011;32805;53.556;9.944;2023-04-19T11:37:36;3.30;;;1.83;;
17141;SDS011;32805;53.556;9.944;2023-04-19T11:40:05;1.58;;;1.40;;
17141;SDS011;32805;53.556;9.944;2023-04-19T11:42:34;2.90;;;1.80;;
17141;SDS011;32805;53.556;9.944;2023-04-19T11:45:02;3.00;;;1.45;;
17141;SDS011;32805;53.556;9.944;2023-04-19T11:47:45;2.55;;;1.90;;
17141;SDS011;32805;53.556;9.944;2023-04-19T11:50:32;2.33;;;1.77;;
17141;SDS011;32805;53.556;9.944;2023-04-19T11:53:11;3.03;;;1.92;;
17141;SDS011;32805;53.556;9.944;2023-04-19T11:55:45;2.08;;;1.50;;
17141;SDS011;32805;53.556;9.944;2023-04-19T11:58:23;4.07;;;1.70;;
17141;SDS011;32805;53.556;9.944;2023-04-19T12:00:54;3.45;;;1.90;;
17141;SDS011;32805;53.556;9.944;2023-04-19T12:15:15;2.28;;;1.50;;
17141;SDS011;32805;53.556;9.944;2023-04-19T12:17:55;2.90;;;1.75;;
17141;SDS011;32805;53.556;9.944;2023-04-19T12:20:27;1.70;;;1.52;;
17141;SDS011;32805;53.556;9.944;2023-04-19T12:22:56;2.13;;;1.83;;
17141;SDS011;32805;53.556;9.944;2023-04-19T12:25:26;2.95;;;1.85;;
17141;SDS011;32805;53.556;9.944;2023-04-19T12:27:55;10.98;;;3.53;;
17141;SDS011;32805;53.556;9.944;2023-04-19T12:30:24;2.03;;;1.75;;
17141;SDS011;32805;53.556;9.944;2023-04-19T12:32:53;2.03;;;1.60;;
17141;SDS011;32805;53.556;9.944;2023-04-19T12:35:21;3.97;;;1.48;;
17141;SDS011;32805;53.556;9.944;2023-04-19T12:37:51;3.08;;;1.77;;
17141;SDS011;32805;53.556;9.944;2023-04-19T12:40:19;4.13;;;1.45;;
17141;SDS011;32805;53.556;9.944;2023-04-19T12:42:47;5.47;;;1.50;;
17141;SDS011;32805;53.556;9.944;2023-04-19T12:45:16;2.55;;;1.80;;
17141;SDS011;32805;53.556;9.944;2023-04-19T12:47:46;4.60;;;1.40;;
17141;SDS011;32805;53.556;9.944;2023-04-19T12:50:14;2.38;;;1.60;;
17141;SDS011;32805;53.556;9.944;2023-04-19T12:52:43;1.55;;;1.45;;
17141;SDS011;32805;53.556;9.944;2023-04-19T12:55:11;4.40;;;1.58;;
17141;SDS011;32805;53.556;9.944;2023-04-19T12:57:39;2.17;;;1.60;;
17141;SDS011;32805;53.556;9.944;2023-04-19T13:00:07;4.28;;;1.30;;
17141;SDS011;32805;53.556;9.944;2023-04-19T13:02:36;2.72;;;1.48;;
17141;SDS011;32805;53.556;9.944;2023-04-19T13:05:06;2.75;;;1.45;;
17141;SDS011;32805;53.556;9.944;2023-04-19T13:07:33;2.45;;;1.60;;
17141;SDS011;32805;53.556;9.944;2023-04-19T13:10:01;3.95;;;1.40;;
17141;SDS011;32805;53.556;9.944;2023-04-19T13:12:29;2.28;;;1.63;;
17141;SDS011;32805;53.556;9.944;2023-04-19T13:14:57;3.28;;;1.55;;
17141;SDS011;32805;53.556;9.944;2023-04-19T13:17:28;1.35;;;1.25;;
17141;SDS011;32805;53.556;9.944;2023-04-19T13:19:55;3.75;;;1.42;;
17141;SDS011;32805;53.556;9.944;2023-04-19T13:22:24;2.55;;;1.70;;
17141;SDS011;32805;53.556;9.944;2023-04-19T13:24:52;4.00;;;1.73;;
17141;SDS011;32805;53.556;9.944;2023-04-19T13:27:20;2.67;;;1.70;;
17141;SDS011;32805;53.556;9.944;2023-04-19T13:29:47;4.38;;;1.73;;
17141;SDS011;32805;53.556;9.944;2023-04-19T13:32:15;4.97;;;1.60;;
17141;SDS011;32805;53.556;9.944;2023-04-19T13:34:43;2.28;;;1.70;;
17141;SDS011;32805;53.556;9.944;2023-04-19T13:37:11;4.15;;;1.65;;
17141;SDS011;32805;53.556;9.944;2023-04-19T13:39:40;2.80;;;1.50;;
17141;SDS011;32805;53.556;9.944;2023-04-19T13:42:07;3.95;;;1.95;;
17141;SDS011;32805;53.556;9.944;2023-04-19T13:44:35;3.35;;;1.60;;
17141;SDS011;32805;53.556;9.944;2023-04-19T13:47:03;5.10;;;1.88;;
17141;SDS011;32805;53.556;9.944;2023-04-19T13:49:32;2.38;;;1.80;;
17141;SDS011;32805;53.556;9.944;2023-04-19T13:51:59;4.15;;;1.77;;
17141;SDS011;32805;53.556;9.944;2023-04-19T13:54:27;2.72;;;1.60;;
17141;SDS011;32805;53.556;9.944;2023-04-19T13:56:56;2.17;;;1.70;;
17141;SDS011;32805;53.556;9.944;2023-04-19T13:59:24;1.70;;;1.42;;
17141;SDS011;32805;53.556;9.944;2023-04-19T14:01:51;1.90;;;1.30;;
17141;SDS011;32805;53.556;9.944;2023-04-19T14:04:21;2.17;;;1.98;;
17141;SDS011;32805;53.556;9.944;2023-04-19T14:06:50;2.75;;;1.60;;
17141;SDS011;32805;53.556;9.944;2023-04-19T14:09:17;1.55;;;1.35;;
17141;SDS011;32805;53.556;9.944;2023-04-19T14:11:45;4.13;;;1.60;;
17141;SDS011;32805;53.556;9.944;2023-04-19T14:14:15;2.85;;;1.60;;
17141;SDS011;32805;53.556;9.944;2023-04-19T14:16:43;1.60;;;1.50;;
17141;SDS011;32805;53.556;9.944;2023-04-19T14:19:11;3.92;;;1.52;;
17141;SDS011;32805;53.556;9.944;2023-04-19T14:21:39;2.00;;;1.45;;
17141;SDS011;32805;53.556;9.944;2023-04-19T14:24:06;3.13;;;1.90;;
17141;SDS011;32805;53.556;9.944;2023-04-19T14:26:34;3.45;;;1.60;;
17141;SDS011;32805;53.556;9.944;2023-04-19T14:29:02;1.92;;;1.35;;
17141;SDS011;32805;53.556;9.944;2023-04-19T14:31:31;4.28;;;1.55;;
17141;SDS011;32805;53.556;9.944;2023-04-19T14:33:59;3.75;;;1.35;;
17141;SDS011;32805;53.556;9.944;2023-04-19T14:36:27;3.83;;;1.33;;
17141;SDS011;32805;53.556;9.944;2023-04-19T14:38:54;4.05;;;2.25;;
17141;SDS011;32805;53.556;9.944;2023-04-19T14:41:22;3.10;;;1.42;;
17141;SDS011;32805;53.556;9.944;2023-04-19T14:43:50;2.47;;;1.50;;
17141;SDS011;32805;53.556;9.944;2023-04-19T14:46:18;7.53;;;1.80;;
17141;SDS011;32805;53.556;9.944;2023-04-19T14:48:47;3.28;;;1.40;;
17141;SDS011;32805;53.556;9.944;2023-04-19T14:51:15;4.40;;;1.70;;
17141;SDS011;32805;53.556;9.944;2023-04-19T14:53:42;2.75;;;1.83;;
17141;SDS011;32805;53.556;9.944;2023-04-19T14:56:10;2.03;;;1.42;;
17141;SDS011;32805;53.556;9.944;2023-04-19T14:58:38;2.05;;;1.60;;
17141;SDS011;32805;53.556;9.944;2023-04-19T15:01:12;2.97;;;1.80;;
17141;SDS011;32805;53.556;9.944;2023-04-19T15:03:40;4.72;;;2.30;;
17141;SDS011;32805;53.556;9.944;2023-04-19T15:06:09;4.05;;;1.52;;
17141;SDS011;32805;53.556;9.944;2023-04-19T15:08:37;1.83;;;1.30;;
17141;SDS011;32805;53.556;9.944;2023-04-19T15:11:06;4.35;;;1.85;;
17141;SDS011;32805;53.556;9.944;2023-04-19T15:13:33;3.75;;;1.55;;
17141;SDS011;32805;53.556;9.944;2023-04-19T15:16:01;2.05;;;1.67;;
17141;SDS011;32805;53.556;9.944;2023-04-19T15:18:29;2.22;;;1.50;;
17141;SDS011;32805;53.556;9.944;2023-04-19T15:20:57;5.78;;;1.80;;
17141;SDS011;32805;53.556;9.944;2023-04-19T15:23:26;4.43;;;1.67;;
17141;SDS011;32805;53.556;9.944;2023-04-19T15:25:54;3.80;;;1.60;;